Time;durP1;ratioP1;P1;durP2;ratioP2;P2;SDS_P1;SDS_P2;PMS_P1;PMS_P2;Temp;Humidity;BMP_temperature;BMP_pressure;BME280_temperature;BME280_humidity;BME280_pressure;Samples;Min_cycle;Max_cycle;Signal;HPM_P1;HPM_P2
2021/08/17 00:02:07;;;;;;;6.43;3.40;;;17.00;68.00;;;;;;5114960;28;20140;-88
2021/08/17 00:04:32;;;;;;;7.35;3.92;;;17.10;68.30;;;;;;5097099;28;20036;-86
2021/08/17 00:06:58;;;;;;;6.53;3.78;;;17.00;67.70;;;;;;5099807;27;20019;-86
2021/08/17 00:09:24;;;;;;;7.97;3.78;;;17.10;67.30;;;;;;5104996;28;20028;-87
2021/08/17 00:11:50;;;;;;;4.63;3.47;;;17.10;69.00;;;;;;5096324;28;20024;-84
2021/08/17 00:14:15;;;;;;;6.65;3.45;;;17.10;68.80;;;;;;5114253;28;20032;-85
2021/08/17 00:16:41;;;;;;;9.38;4.55;;;17.00;68.20;;;;;;5114114;28;20024;-86
2021/08/17 00:19:06;;;;;;;5.97;3.80;;;17.00;68.00;;;;;;5113887;28;20080;-86
2021/08/17 00:21:32;;;;;;;7.30;4.10;;;17.00;68.10;;;;;;5095651;28;20050;-86
2021/08/17 00:23:58;;;;;;;7.70;3.72;;;17.00;67.70;;;;;;5096266;28;20038;-87
2021/08/17 00:26:23;;;;;;;6.18;3.75;;;17.00;68.20;;;;;;5114428;28;20488;-87
2021/08/17 00:28:49;;;;;;;8.15;4.00;;;17.00;67.80;;;;;;5114601;28;20502;-86
2021/08/17 00:31:14;;;;;;;7.43;3.95;;;16.90;68.50;;;;;;5095087;28;20028;-87
2021/08/17 00:33:40;;;;;;;7.45;3.63;;;17.00;68.30;;;;;;5113387;28;20118;-85
2021/08/17 00:36:09;;;;;;;5.35;3.50;;;16.90;68.60;;;;;;5101716;28;20030;-85
2021/08/17 00:38:36;;;;;;;7.35;4.22;;;16.90;68.50;;;;;;5098833;28;20101;-85
2021/08/17 00:41:02;;;;;;;10.65;4.18;;;16.90;68.60;;;;;;5095920;28;20028;-86
2021/08/17 00:43:28;;;;;;;9.00;3.70;;;16.90;69.60;;;;;;5109858;28;20035;-85
2021/08/17 00:45:53;;;;;;;7.85;3.65;;;16.90;68.50;;;;;;5114274;28;20020;-86
2021/08/17 00:48:19;;;;;;;8.32;3.83;;;16.90;68.60;;;;;;5095599;28;20503;-85
2021/08/17 00:50:46;;;;;;;7.18;4.10;;;16.90;68.90;;;;;;5114168;28;20068;-86
2021/08/17 00:53:13;;;;;;;7.78;4.18;;;16.90;69.00;;;;;;5095789;28;20526;-85
2021/08/17 00:55:39;;;;;;;5.90;3.85;;;16.90;68.00;;;;;;5096303;28;20475;-87
2021/08/17 00:58:05;;;;;;;7.82;4.15;;;16.80;69.10;;;;;;5113733;28;20039;-85
2021/08/17 01:00:31;;;;;;;7.53;4.20;;;16.90;68.70;;;;;;5095335;28;20035;-87
2021/08/17 01:02:56;;;;;;;6.35;3.67;;;16.90;69.20;;;;;;5094921;28;20030;-86
2021/08/17 01:05:27;;;;;;;8.48;3.92;;;16.90;69.70;;;;;;5095621;28;20027;-87
2021/08/17 01:07:53;;;;;;;10.02;4.40;;;16.90;69.30;;;;;;5095932;28;20387;-87
2021/08/17 01:10:19;;;;;;;6.63;3.58;;;16.90;68.90;;;;;;5094241;28;20487;-87
2021/08/17 01:12:45;;;;;;;5.85;4.20;;;16.90;69.20;;;;;;5113529;28;20046;-86
2021/08/17 01:15:17;;;;;;;7.20;4.03;;;16.90;69.50;;;;;;5113437;28;20019;-85
2021/08/17 01:17:44;;;;;;;8.70;4.00;;;16.90;69.50;;;;;;5094590;28;20036;-85
2021/08/17 01:20:19;;;;;;;6.93;3.75;;;16.90;69.40;;;;;;5113554;28;20032;-85
2021/08/17 01:22:47;;;;;;;6.75;3.75;;;16.90;70.00;;;;;;5112313;28;20380;-86
2021/08/17 01:25:13;;;;;;;6.47;3.70;;;16.90;69.40;;;;;;5094883;28;20034;-85
2021/08/17 01:27:40;;;;;;;8.65;3.83;;;16.90;69.70;;;;;;5091419;28;20030;-85
2021/08/17 01:30:08;;;;;;;9.50;3.92;;;16.90;69.40;;;;;;5101844;28;20081;-86
2021/08/17 01:32:33;;;;;;;7.05;4.10;;;16.90;69.70;;;;;;5107036;28;20055;-85
2021/08/17 01:34:59;;;;;;;10.77;4.38;;;16.90;69.50;;;;;;5091902;28;20070;-85
2021/08/17 01:37:25;;;;;;;9.18;4.40;;;16.90;69.80;;;;;;5094689;28;20161;-85
2021/08/17 01:40:10;;;;;;;8.13;4.68;;;16.80;69.80;;;;;;5094464;28;20496;-85
2021/08/17 01:42:40;;;;;;;7.75;3.80;;;16.80;69.60;;;;;;5094292;28;20092;-86
2021/08/17 01:45:06;;;;;;;6.78;4.07;;;16.80;69.90;;;;;;5093868;28;20031;-85
2021/08/17 01:47:32;;;;;;;8.13;4.10;;;16.80;70.30;;;;;;5112702;28;20031;-85
2021/08/17 01:50:01;;;;;;;7.70;4.55;;;16.80;70.20;;;;;;5113272;28;20016;-85
2021/08/17 01:52:27;;;;;;;8.75;4.20;;;16.80;71.00;;;;;;5116961;27;20036;-86
2021/08/17 01:54:52;;;;;;;6.60;3.75;;;16.80;70.00;;;;;;5089493;28;20062;-85
2021/08/17 01:57:18;;;;;;;8.18;4.05;;;16.80;70.50;;;;;;5112390;28;20043;-84
2021/08/17 01:59:44;;;;;;;8.63;4.00;;;16.80;70.50;;;;;;5094105;28;20104;-85
2021/08/17 02:02:09;;;;;;;7.97;4.38;;;16.80;70.60;;;;;;5112570;28;20106;-84
2021/08/17 02:04:36;;;;;;;6.53;3.92;;;16.70;70.60;;;;;;5094989;28;20033;-84
2021/08/17 02:07:02;;;;;;;6.60;3.90;;;16.60;71.00;;;;;;5112553;28;20076;-84
2021/08/17 02:09:28;;;;;;;9.55;4.43;;;16.60;71.00;;;;;;5112280;28;20081;-83
2021/08/17 02:11:54;;;;;;;10.90;4.53;;;16.60;71.10;;;;;;5094350;28;20031;-85
2021/08/17 02:14:19;;;;;;;8.18;4.45;;;16.60;71.40;;;;;;5094269;28;20036;-84
2021/08/17 02:16:45;;;;;;;6.65;4.30;;;16.70;71.30;;;;;;5112857;28;20027;-86
2021/08/17 02:19:10;;;;;;;8.55;4.03;;;16.70;71.30;;;;;;5090782;28;20515;-85
2021/08/17 02:21:36;;;;;;;7.55;4.30;;;16.70;71.50;;;;;;5090607;28;20127;-85
2021/08/17 02:24:02;;;;;;;8.63;4.10;;;16.70;71.50;;;;;;5091916;28;20026;-86
2021/08/17 02:26:27;;;;;;;7.45;3.60;;;16.70;71.40;;;;;;5090657;28;20020;-85
2021/08/17 02:28:53;;;;;;;7.00;3.97;;;16.80;71.70;;;;;;5090769;28;20028;-85
2021/08/17 02:31:19;;;;;;;8.43;3.55;;;16.80;71.60;;;;;;5091249;28;20027;-87
2021/08/17 02:33:44;;;;;;;9.20;4.35;;;16.70;71.40;;;;;;5090526;28;20131;-86
2021/08/17 02:36:10;;;;;;;9.55;4.68;;;16.70;71.90;;;;;;5090179;28;20024;-85
2021/08/17 02:38:35;;;;;;;7.00;3.80;;;16.70;71.60;;;;;;5091359;28;20028;-85
2021/08/17 02:41:01;;;;;;;7.45;4.32;;;16.70;71.70;;;;;;5089677;28;20451;-86
2021/08/17 02:43:27;;;;;;;7.60;4.05;;;16.70;71.70;;;;;;5090696;28;20476;-85
2021/08/17 02:45:55;;;;;;;9.77;4.43;;;16.70;71.80;;;;;;5091638;28;20055;-85
2021/08/17 02:48:21;;;;;;;9.32;3.50;;;16.60;71.90;;;;;;5089933;28;20039;-86
2021/08/17 02:50:46;;;;;;;7.47;3.88;;;16.60;72.00;;;;;;5090033;28;20019;-87
2021/08/17 02:53:12;;;;;;;8.95;3.53;;;16.60;72.20;;;;;;5091509;28;20024;-86
2021/08/17 02:55:38;;;;;;;7.47;3.65;;;16.60;72.00;;;;;;5086787;28;20051;-87
2021/08/17 02:58:07;;;;;;;7.70;4.25;;;16.50;72.30;;;;;;5122718;27;20480;-86
2021/08/17 03:00:33;;;;;;;6.72;3.45;;;16.50;72.60;;;;;;5089728;28;20059;-85
2021/08/17 03:02:58;;;;;;;7.05;3.67;;;16.50;72.30;;;;;;5091401;28;20129;-85
2021/08/17 03:05:24;;;;;;;6.85;3.80;;;16.50;73.40;;;;;;5091403;28;20041;-86
2021/08/17 03:07:55;;;;;;;8.70;3.90;;;16.50;72.60;;;;;;5101239;28;20024;-86
2021/08/17 03:10:22;;;;;;;8.70;4.15;;;16.50;72.10;;;;;;5089499;28;20057;-86
2021/08/17 03:12:48;;;;;;;6.32;3.22;;;16.50;72.40;;;;;;5091388;28;20055;-87
2021/08/17 03:15:14;;;;;;;8.20;4.28;;;16.60;72.80;;;;;;5091099;28;20020;-87
2021/08/17 03:17:40;;;;;;;5.93;3.60;;;16.50;72.60;;;;;;5083921;28;20094;-88
2021/08/17 03:20:08;;;;;;;8.55;3.80;;;16.50;72.40;;;;;;5069848;28;20048;-86
2021/08/17 03:22:34;;;;;;;6.97;3.45;;;16.50;72.60;;;;;;5070203;28;20026;-85
2021/08/17 03:25:00;;;;;;;5.45;3.47;;;16.50;72.70;;;;;;5071198;28;20523;-86
2021/08/17 03:27:26;;;;;;;9.15;3.97;;;16.50;72.90;;;;;;5071342;28;20500;-85
2021/08/17 03:29:51;;;;;;;8.43;3.95;;;16.50;72.60;;;;;;5069685;28;20024;-85
2021/08/17 03:32:17;;;;;;;6.00;3.90;;;16.50;72.60;;;;;;5069813;28;20035;-85
2021/08/17 03:34:43;;;;;;;8.30;3.42;;;16.50;72.60;;;;;;5071432;28;20086;-86
2021/08/17 03:37:08;;;;;;;10.60;3.97;;;16.50;72.40;;;;;;5070866;28;20131;-87
2021/08/17 03:39:34;;;;;;;5.80;3.50;;;16.50;72.70;;;;;;5070940;28;20036;-86
2021/08/17 03:41:59;;;;;;;7.70;3.53;;;16.50;72.80;;;;;;5071128;28;20027;-85
2021/08/17 03:44:25;;;;;;;6.10;3.30;;;16.50;72.80;;;;;;5070775;28;20040;-86
2021/08/17 03:46:51;;;;;;;6.97;3.47;;;16.50;73.80;;;;;;5069948;28;20023;-86
2021/08/17 03:49:16;;;;;;;8.00;3.58;;;16.50;72.90;;;;;;5067055;28;20037;-86
2021/08/17 03:51:42;;;;;;;5.35;3.38;;;16.50;72.60;;;;;;5071503;28;20024;-88
2021/08/17 03:54:08;;;;;;;8.38;3.70;;;16.50;73.40;;;;;;5072996;28;20036;-88
2021/08/17 03:56:33;;;;;;;6.68;3.63;;;16.60;73.10;;;;;;5074603;28;20032;-87
2021/08/17 03:58:59;;;;;;;5.85;3.83;;;16.60;73.10;;;;;;5073778;28;20031;-87
2021/08/17 04:01:24;;;;;;;16.27;5.97;;;16.60;74.30;;;;;;5073455;28;20119;-86
2021/08/17 04:03:50;;;;;;;10.63;5.07;;;16.60;72.70;;;;;;5071639;28;20058;-87
2021/08/17 04:06:15;;;;;;;11.45;4.82;;;16.60;72.40;;;;;;5073550;28;20036;-87
2021/08/17 04:08:41;;;;;;;7.63;4.43;;;16.50;72.40;;;;;;5073671;28;20493;-88
2021/08/17 04:11:07;;;;;;;8.23;3.72;;;16.50;72.80;;;;;;5072440;28;20028;-86
2021/08/17 04:13:32;;;;;;;6.70;3.47;;;16.50;72.90;;;;;;5074130;28;20124;-85
2021/08/17 04:15:58;;;;;;;8.13;3.47;;;16.50;72.90;;;;;;5072135;28;20025;-85
2021/08/17 04:18:24;;;;;;;6.85;3.58;;;16.50;72.70;;;;;;5072750;28;20040;-86
2021/08/17 04:20:49;;;;;;;7.82;3.80;;;16.50;72.70;;;;;;5072157;28;20037;-86
2021/08/17 04:23:16;;;;;;;8.65;3.50;;;16.50;72.50;;;;;;5056683;28;20374;-88
2021/08/17 04:25:42;;;;;;;9.10;3.60;;;16.50;73.80;;;;;;5074548;28;20052;-85
2021/08/17 04:28:08;;;;;;;6.38;3.05;;;16.50;73.10;;;;;;5064522;28;20468;-85
2021/08/17 04:30:33;;;;;;;6.60;3.53;;;16.50;72.70;;;;;;5074436;28;20036;-85
2021/08/17 04:32:59;;;;;;;5.60;3.13;;;16.50;73.10;;;;;;5075339;28;20027;-85
2021/08/17 04:35:25;;;;;;;8.63;3.20;;;16.50;72.90;;;;;;5072760;28;20035;-89
2021/08/17 04:37:50;;;;;;;7.78;3.47;;;16.50;73.20;;;;;;5072405;28;20063;-86
2021/08/17 04:40:16;;;;;;;5.85;2.85;;;16.40;72.60;;;;;;5076256;28;20100;-87
2021/08/17 04:42:42;;;;;;;6.43;3.47;;;16.50;73.00;;;;;;5072050;28;20029;-85
2021/08/17 04:45:08;;;;;;;6.28;3.30;;;16.50;72.90;;;;;;5060665;28;20145;-85
2021/08/17 04:47:34;;;;;;;6.45;3.20;;;16.40;73.20;;;;;;5069947;28;20060;-87
2021/08/17 04:49:59;;;;;;;9.95;3.50;;;16.40;72.50;;;;;;5073825;28;20021;-85
2021/08/17 04:52:25;;;;;;;6.50;2.88;;;16.40;73.90;;;;;;5072303;28;20107;-86
2021/08/17 04:54:50;;;;;;;7.25;2.90;;;16.40;73.00;;;;;;5071971;28;20033;-86
2021/08/17 04:57:16;;;;;;;7.45;3.53;;;16.30;72.60;;;;;;5077266;28;20480;-85
2021/08/17 04:59:42;;;;;;;5.32;2.65;;;16.40;72.90;;;;;;5073364;28;20033;-86
2021/08/17 05:02:07;;;;;;;5.30;2.80;;;16.40;73.00;;;;;;5087145;28;20024;-87
2021/08/17 05:04:33;;;;;;;4.97;2.90;;;16.40;72.80;;;;;;5060996;28;20033;-87
2021/08/17 05:06:59;;;;;;;5.78;2.90;;;16.40;72.90;;;;;;5068414;28;20020;-90
2021/08/17 05:09:25;;;;;;;4.60;2.53;;;16.40;72.60;;;;;;5070471;28;20036;-88
2021/08/17 05:11:51;;;;;;;7.55;2.88;;;16.40;73.10;;;;;;5070245;28;20468;-83
2021/08/17 05:14:17;;;;;;;5.50;2.65;;;16.40;73.10;;;;;;5078020;28;20020;-84
2021/08/17 05:16:43;;;;;;;5.82;2.90;;;16.30;73.20;;;;;;5081503;28;20030;-84
2021/08/17 05:19:08;;;;;;;5.13;2.88;;;16.20;72.70;;;;;;5109522;28;20398;-83
2021/08/17 05:21:34;;;;;;;5.75;2.90;;;16.30;73.20;;;;;;5113461;28;20031;-82
2021/08/17 05:24:00;;;;;;;7.00;2.92;;;16.30;73.50;;;;;;5094836;28;20495;-84
2021/08/17 05:26:25;;;;;;;4.78;2.60;;;16.30;73.10;;;;;;5112059;28;20070;-83
2021/08/17 05:28:51;;;;;;;6.78;3.30;;;16.30;73.10;;;;;;5109634;28;20099;-85
2021/08/17 05:31:17;;;;;;;4.13;2.60;;;16.40;73.20;;;;;;5113047;28;20043;-86
2021/08/17 05:33:43;;;;;;;4.88;2.65;;;16.40;72.90;;;;;;5095313;28;20059;-89
2021/08/17 05:36:08;;;;;;;8.32;3.25;;;16.40;72.80;;;;;;5093604;28;20476;-87
2021/08/17 05:38:35;;;;;;;4.75;2.28;;;16.40;72.80;;;;;;5095017;28;20068;-86
2021/08/17 05:41:01;;;;;;;6.53;2.72;;;16.40;72.90;;;;;;5113046;28;20052;-86
2021/08/17 05:43:26;;;;;;;5.00;2.58;;;16.40;72.80;;;;;;5113526;28;20232;-85
2021/08/17 05:45:52;;;;;;;4.57;2.72;;;16.40;72.30;;;;;;5094353;28;20032;-86
2021/08/17 05:48:18;;;;;;;5.28;2.50;;;16.30;72.30;;;;;;5094365;28;20023;-86
2021/08/17 05:50:43;;;;;;;7.72;3.13;;;16.20;73.30;;;;;;5094567;28;20019;-87
2021/08/17 05:53:09;;;;;;;6.28;2.58;;;16.20;73.70;;;;;;5095038;28;20484;-86
2021/08/17 05:55:35;;;;;;;5.65;2.70;;;16.20;73.80;;;;;;5113445;28;20023;-85
2021/08/17 05:58:03;;;;;;;6.05;2.58;;;16.10;74.30;;;;;;5112882;28;20027;-86
2021/08/17 06:00:29;;;;;;;6.53;2.70;;;16.10;74.00;;;;;;5112910;28;20048;-86
2021/08/17 06:02:55;;;;;;;5.75;2.60;;;16.10;74.20;;;;;;5094023;28;20396;-86
2021/08/17 06:05:22;;;;;;;6.57;2.70;;;16.10;74.30;;;;;;5112803;28;20032;-86
2021/08/17 06:07:49;;;;;;;6.95;3.00;;;16.10;74.70;;;;;;5113351;28;20019;-86
2021/08/17 06:10:16;;;;;;;5.05;3.03;;;16.20;74.90;;;;;;5112759;28;20020;-86
2021/08/17 06:12:42;;;;;;;5.75;2.88;;;16.20;74.50;;;;;;5094242;28;20031;-85
2021/08/17 06:15:09;;;;;;;6.18;2.60;;;16.30;74.60;;;;;;5111873;28;20020;-86
2021/08/17 06:17:34;;;;;;;6.82;2.95;;;16.30;74.30;;;;;;5093590;28;20048;-86
2021/08/17 06:20:01;;;;;;;7.78;2.90;;;16.30;74.40;;;;;;5094872;28;20028;-86
2021/08/17 06:22:26;;;;;;;7.60;3.20;;;16.40;74.40;;;;;;5094833;28;20031;-87
2021/08/17 06:24:52;;;;;;;6.78;3.00;;;16.40;74.00;;;;;;5112635;28;20111;-87
2021/08/17 06:27:19;;;;;;;3.50;2.90;;;16.40;74.10;;;;;;5094338;28;20028;-86
2021/08/17 06:29:44;;;;;;;5.80;2.97;;;16.50;74.30;;;;;;5094438;28;20024;-87
2021/08/17 06:32:10;;;;;;;4.20;2.65;;;16.50;73.90;;;;;;5094018;28;20080;-87
2021/08/17 06:34:36;;;;;;;5.05;3.10;;;16.50;73.90;;;;;;5094598;28;20056;-87
2021/08/17 06:37:01;;;;;;;6.80;2.88;;;16.50;73.30;;;;;;5093738;28;20028;-86
2021/08/17 06:39:27;;;;;;;8.23;3.15;;;16.50;73.70;;;;;;5112316;28;20165;-86
2021/08/17 06:41:53;;;;;;;5.15;2.72;;;16.60;73.00;;;;;;5093899;28;20039;-87
2021/08/17 06:44:18;;;;;;;5.05;2.58;;;16.50;73.30;;;;;;5093998;28;20023;-86
2021/08/17 06:46:46;;;;;;;6.45;2.95;;;16.50;73.00;;;;;;5094305;28;20030;-86
2021/08/17 06:49:12;;;;;;;6.32;2.50;;;16.50;73.00;;;;;;5094251;28;20096;-88
2021/08/17 06:51:37;;;;;;;4.22;2.10;;;16.50;73.30;;;;;;5091033;28;20031;-85
2021/08/17 06:54:03;;;;;;;4.63;2.60;;;16.50;73.10;;;;;;5093320;28;20564;-87
2021/08/17 06:56:29;;;;;;;6.07;2.30;;;16.50;73.40;;;;;;5111632;28;20036;-87
2021/08/17 06:58:55;;;;;;;4.82;2.22;;;16.40;73.30;;;;;;5111931;28;20059;-87
2021/08/17 07:01:20;;;;;;;5.53;2.60;;;16.40;73.80;;;;;;5092310;28;20024;-87
2021/08/17 07:03:46;;;;;;;5.13;2.20;;;16.40;73.60;;;;;;5092869;28;20055;-87
2021/08/17 07:06:11;;;;;;;3.92;2.33;;;16.50;73.60;;;;;;5092194;28;20411;-87
2021/08/17 07:08:40;;;;;;;5.00;2.28;;;16.40;74.40;;;;;;5093444;28;20563;-87
2021/08/17 07:11:06;;;;;;;3.28;2.33;;;16.50;73.70;;;;;;5093373;28;20028;-89
2021/08/17 07:13:32;;;;;;;4.13;2.33;;;16.50;73.40;;;;;;5092474;28;20024;-88
2021/08/17 07:15:57;;;;;;;5.13;2.22;;;16.60;73.50;;;;;;5094061;28;20024;-86
2021/08/17 07:18:24;;;;;;;5.97;2.42;;;16.60;73.70;;;;;;5093789;28;20408;-87
2021/08/17 07:20:50;;;;;;;6.63;2.70;;;16.60;72.90;;;;;;5093010;28;20074;-88
2021/08/17 07:23:16;;;;;;;4.55;2.30;;;16.50;72.80;;;;;;5093976;28;20020;-87
2021/08/17 07:25:42;;;;;;;6.18;2.85;;;16.50;74.00;;;;;;5111776;28;20031;-87
2021/08/17 07:28:11;;;;;;;4.95;2.45;;;16.60;74.40;;;;;;5096888;28;20495;-87
2021/08/17 07:30:38;;;;;;;5.10;2.40;;;16.60;73.50;;;;;;5095740;28;20046;-87
2021/08/17 07:33:04;;;;;;;5.28;2.13;;;16.70;73.90;;;;;;5098660;28;20020;-88
2021/08/17 07:35:30;;;;;;;4.68;2.78;;;16.70;73.80;;;;;;5098247;28;20425;-87
2021/08/17 07:37:56;;;;;;;5.13;2.80;;;16.90;73.40;;;;;;5101848;27;20161;-87
2021/08/17 07:40:23;;;;;;;4.80;2.30;;;16.80;73.30;;;;;;5099872;27;20074;-90
2021/08/17 07:42:48;;;;;;;4.20;2.13;;;16.80;74.30;;;;;;5100071;27;22112;-88
2021/08/17 07:45:15;;;;;;;5.18;2.50;;;16.90;73.60;;;;;;5099423;27;20031;-88
2021/08/17 07:47:42;;;;;;;5.80;2.65;;;16.90;73.50;;;;;;5109639;27;20031;-87
2021/08/17 07:50:09;;;;;;;5.00;2.20;;;17.00;73.40;;;;;;5118581;27;20114;-88
2021/08/17 07:52:36;;;;;;;5.18;3.00;;;17.20;73.80;;;;;;5097481;27;20035;-88
2021/08/17 07:55:04;;;;;;;4.82;2.22;;;17.30;73.10;;;;;;5128795;27;20484;-88
2021/08/17 07:57:30;;;;;;;7.55;2.90;;;17.40;73.10;;;;;;5097010;28;20058;-86
2021/08/17 07:59:57;;;;;;;6.43;2.75;;;17.40;72.70;;;;;;5097237;28;20071;-88
2021/08/17 08:02:23;;;;;;;5.43;2.38;;;17.40;73.30;;;;;;5097760;28;20051;-87
2021/08/17 08:04:49;;;;;;;6.43;3.00;;;17.40;72.70;;;;;;5097727;28;20028;-87
2021/08/17 08:07:14;;;;;;;6.35;2.85;;;17.50;72.20;;;;;;5098257;28;20030;-87
2021/08/17 08:09:40;;;;;;;4.78;2.60;;;17.40;72.50;;;;;;5116325;28;20098;-87
2021/08/17 08:12:07;;;;;;;5.45;2.60;;;17.50;72.20;;;;;;5097700;28;20028;-87
2021/08/17 08:14:32;;;;;;;6.57;2.53;;;17.40;71.80;;;;;;5097729;28;20023;-87
2021/08/17 08:16:58;;;;;;;4.28;2.20;;;17.30;71.90;;;;;;5097301;28;20054;-87
2021/08/17 08:19:24;;;;;;;8.88;2.40;;;17.30;72.40;;;;;;5097712;28;20079;-87
2021/08/17 08:21:50;;;;;;;5.60;2.15;;;17.30;72.50;;;;;;5097907;28;20110;-87
2021/08/17 08:24:16;;;;;;;5.38;2.50;;;17.40;72.80;;;;;;5097981;28;20035;-87
2021/08/17 08:26:42;;;;;;;10.57;3.60;;;17.40;72.90;;;;;;5097461;28;20020;-88
2021/08/17 08:29:07;;;;;;;7.82;3.50;;;17.40;72.60;;;;;;5097599;28;20460;-88
2021/08/17 08:31:33;;;;;;;6.32;3.15;;;17.50;72.90;;;;;;5097584;28;20114;-88
2021/08/17 08:33:59;;;;;;;4.63;2.30;;;17.60;73.10;;;;;;5097086;28;20070;-87
2021/08/17 08:36:24;;;;;;;5.82;2.53;;;17.60;72.30;;;;;;5096394;28;20161;-87
2021/08/17 08:38:50;;;;;;;6.47;3.35;;;17.60;72.50;;;;;;5095652;28;20046;-88
2021/08/17 08:41:18;;;;;;;5.88;2.35;;;17.50;72.30;;;;;;5096011;28;20467;-88
2021/08/17 08:43:44;;;;;;;8.10;3.00;;;17.40;72.50;;;;;;5096942;28;20024;-87
2021/08/17 08:46:15;;;;;;;4.55;2.63;;;17.50;74.00;;;;;;5095872;28;20146;-88
2021/08/17 08:48:45;;;;;;;7.57;3.22;;;17.50;73.10;;;;;;5097391;28;20035;-88
2021/08/17 08:51:11;;;;;;;4.60;2.50;;;17.60;73.40;;;;;;5095509;28;20122;-87
2021/08/17 08:53:38;;;;;;;4.22;2.35;;;17.70;73.00;;;;;;5096799;28;20067;-88
2021/08/17 08:56:04;;;;;;;5.13;2.42;;;17.70;73.00;;;;;;5096682;28;20024;-88
2021/08/17 08:58:30;;;;;;;4.30;2.33;;;17.80;73.60;;;;;;5097104;28;20015;-87
2021/08/17 09:00:56;;;;;;;5.05;2.67;;;18.00;73.20;;;;;;5096211;28;20560;-87
2021/08/17 09:03:47;;;;;;;8.82;4.53;;;18.00;72.60;;;;;;5085155;28;20085;-88
2021/08/17 09:06:16;;;;;;;3.63;2.20;;;18.00;72.30;;;;;;5091536;28;20024;-88
2021/08/17 09:08:42;;;;;;;6.40;3.05;;;17.90;72.40;;;;;;5096656;28;20048;-88
2021/08/17 09:11:15;;;;;;;3.22;2.20;;;17.90;73.10;;;;;;5096151;28;20112;-87
2021/08/17 09:13:41;;;;;;;2.80;1.88;;;18.10;73.40;;;;;;5096384;28;20514;-87
2021/08/17 09:16:27;;;;;;;3.60;2.17;;;18.20;73.20;;;;;;5096574;28;20027;-88
2021/08/17 09:18:53;;;;;;;3.17;1.70;;;18.20;72.20;;;;;;5096444;28;20434;-87
2021/08/17 09:21:39;;;;;;;3.95;1.77;;;18.30;72.40;;;;;;5093367;28;20039;-87
2021/08/17 09:24:18;;;;;;;2.85;1.65;;;18.30;72.20;;;;;;5095884;28;20510;-88
2021/08/17 09:26:52;;;;;;;3.53;1.90;;;18.30;71.80;;;;;;5096352;28;20041;-88
2021/08/17 09:29:24;;;;;;;3.35;1.92;;;18.30;71.80;;;;;;5096576;28;20042;-87
2021/08/17 09:31:52;;;;;;;3.47;2.00;;;18.10;73.10;;;;;;5096449;28;20034;-87
2021/08/17 09:34:19;;;;;;;2.33;1.55;;;18.00;72.10;;;;;;5096260;28;20455;-88
2021/08/17 09:36:46;;;;;;;3.92;1.70;;;17.80;74.30;;;;;;5095804;28;20023;-87
2021/08/17 09:39:27;;;;;;;2.83;1.52;;;17.80;75.10;;;;;;5096087;28;20110;-87
2021/08/17 09:42:14;;;;;;;2.15;1.40;;;17.90;74.70;;;;;;5114401;28;20034;-87
2021/08/17 09:44:40;;;;;;;2.00;1.30;;;18.10;75.10;;;;;;5129847;27;20024;-89
2021/08/17 09:47:06;;;;;;;2.28;1.40;;;18.30;74.90;;;;;;5095879;28;20057;-88
2021/08/17 09:49:32;;;;;;;2.22;1.23;;;18.30;74.10;;;;;;5093317;28;20023;-87
2021/08/17 09:52:14;;;;;;;2.28;1.30;;;18.20;73.40;;;;;;5092254;28;20434;-88
2021/08/17 09:54:49;;;;;;;2.95;1.33;;;18.10;74.30;;;;;;5094380;28;20024;-88
2021/08/17 09:57:15;;;;;;;2.83;1.63;;;18.30;74.90;;;;;;5095203;28;20042;-88
2021/08/17 09:59:43;;;;;;;2.33;1.40;;;18.40;74.80;;;;;;5095186;28;20031;-88
2021/08/17 10:02:10;;;;;;;2.05;1.50;;;18.50;73.50;;;;;;5094830;28;20028;-87
2021/08/17 10:04:38;;;;;;;4.57;1.50;;;18.40;72.90;;;;;;5094860;28;20027;-88
2021/08/17 10:07:05;;;;;;;2.88;1.65;;;18.40;73.30;;;;;;5094257;28;20035;-88
2021/08/17 10:09:33;;;;;;;3.13;1.33;;;18.40;72.90;;;;;;5094939;28;20027;-88
2021/08/17 10:12:00;;;;;;;2.83;1.42;;;18.50;72.70;;;;;;5095608;28;20039;-88
2021/08/17 10:14:25;;;;;;;3.25;1.70;;;18.50;72.20;;;;;;5095660;28;20031;-87
2021/08/17 10:16:51;;;;;;;2.78;1.48;;;18.50;71.80;;;;;;5095612;28;20086;-88
2021/08/17 10:19:20;;;;;;;1.70;1.15;;;18.40;72.60;;;;;;5095246;28;20514;-87
2021/08/17 10:21:48;;;;;;;3.05;1.52;;;18.60;72.50;;;;;;5113282;28;20028;-87
2021/08/17 10:24:35;;;;;;;3.15;1.70;;;18.50;72.50;;;;;;5112281;28;20027;-88
2021/08/17 10:27:15;;;;;;;4.40;1.60;;;18.50;72.10;;;;;;5092358;28;20053;-87
2021/08/17 10:30:04;;;;;;;3.75;1.65;;;18.50;72.80;;;;;;5095211;28;20019;-87
2021/08/17 10:32:57;;;;;;;3.47;1.50;;;18.50;72.40;;;;;;5095543;28;20050;-88
2021/08/17 10:35:52;;;;;;;3.72;1.88;;;18.50;72.70;;;;;;5113218;28;20019;-88
2021/08/17 10:38:17;;;;;;;3.03;1.60;;;18.60;72.00;;;;;;5086629;28;20042;-88
2021/08/17 10:41:05;;;;;;;3.00;2.22;;;18.50;71.20;;;;;;5094752;28;20048;-88
2021/08/17 10:43:30;;;;;;;3.05;1.50;;;18.80;73.00;;;;;;5092953;28;20520;-88
2021/08/17 10:46:06;;;;;;;2.17;1.67;;;18.70;71.10;;;;;;5094713;28;20052;-87
2021/08/17 10:49:05;;;;;;;2.55;1.55;;;18.90;71.10;;;;;;5094271;28;20035;-88
2021/08/17 10:51:30;;;;;;;4.95;2.20;;;19.00;71.20;;;;;;5112566;28;20059;-85
2021/08/17 10:54:04;;;;;;;3.47;1.65;;;19.30;71.10;;;;;;5094649;28;20058;-88
2021/08/17 10:56:32;;;;;;;4.35;1.70;;;19.50;69.50;;;;;;5077594;28;20031;-88
2021/08/17 10:58:59;;;;;;;4.05;1.73;;;19.50;68.80;;;;;;5095046;28;20392;-87
2021/08/17 11:01:30;;;;;;;5.60;4.00;;;19.40;68.60;;;;;;5113123;28;20036;-86
2021/08/17 11:04:09;;;;;;;5.30;2.25;;;19.40;69.50;;;;;;5098456;28;20041;-86
2021/08/17 11:06:40;;;;;;;3.00;1.80;;;19.40;69.60;;;;;;5098394;28;20035;-87
2021/08/17 11:09:09;;;;;;;2.75;1.83;;;19.10;67.80;;;;;;5094983;28;20030;-87
2021/08/17 11:11:35;;;;;;;4.40;1.95;;;19.00;68.70;;;;;;5098176;28;20015;-88
2021/08/17 11:14:01;;;;;;;14.07;7.38;;;18.90;69.10;;;;;;5098543;28;20031;-89
2021/08/17 11:16:27;;;;;;;6.07;2.60;;;18.90;69.60;;;;;;5099626;28;20039;-89
2021/08/17 11:18:57;;;;;;;4.93;2.50;;;18.90;69.40;;;;;;5099944;28;20135;-91
2021/08/17 11:21:39;;;;;;;3.97;2.08;;;19.00;69.70;;;;;;5098043;28;20092;-89
2021/08/17 11:24:10;;;;;;;3.90;1.92;;;19.00;69.70;;;;;;5098671;28;20024;-87
2021/08/17 11:26:37;;;;;;;3.75;1.83;;;19.00;69.50;;;;;;5098774;28;20028;-90
2021/08/17 11:29:04;;;;;;;2.88;1.70;;;19.20;69.10;;;;;;5116718;28;20477;-88
2021/08/17 11:31:29;;;;;;;3.63;1.50;;;19.10;68.70;;;;;;5095080;28;20023;-88
2021/08/17 11:34:18;;;;;;;2.75;1.42;;;19.20;68.70;;;;;;5115486;28;20069;-88
2021/08/17 11:36:52;;;;;;;2.85;1.52;;;19.30;69.10;;;;;;5098872;27;20127;-88
2021/08/17 11:39:24;;;;;;;2.83;1.67;;;19.40;68.40;;;;;;5107301;28;20365;-88
2021/08/17 11:41:50;;;;;;;3.42;1.80;;;19.50;68.00;;;;;;5104090;28;20035;-88
2021/08/17 11:44:17;;;;;;;4.32;1.90;;;19.70;68.20;;;;;;5097903;28;20073;-88
2021/08/17 11:46:43;;;;;;;2.72;1.40;;;19.80;67.10;;;;;;5112942;27;20023;-88
2021/08/17 11:49:27;;;;;;;3.95;1.58;;;19.60;66.20;;;;;;5082556;28;20729;-88
2021/08/17 11:52:17;;;;;;;4.32;1.92;;;19.60;67.20;;;;;;5093066;28;20023;-88
2021/08/17 11:54:46;;;;;;;2.75;1.60;;;19.40;66.70;;;;;;5097650;28;20024;-88
2021/08/17 11:57:17;;;;;;;4.03;1.80;;;19.30;66.50;;;;;;5097491;28;20072;-88
2021/08/17 11:59:45;;;;;;;3.75;1.75;;;19.30;68.20;;;;;;5111274;27;20031;-88
2021/08/17 12:02:22;;;;;;;2.83;1.70;;;19.50;67.70;;;;;;5095825;28;20425;-88
2021/08/17 12:04:53;;;;;;;3.40;1.60;;;19.80;68.10;;;;;;5095992;28;20028;-88
2021/08/17 12:07:20;;;;;;;6.47;2.20;;;19.90;66.80;;;;;;5097263;28;20035;-88
2021/08/17 12:09:47;;;;;;;4.20;2.00;;;20.00;66.40;;;;;;5097094;28;20030;-89
2021/08/17 12:12:15;;;;;;;2.03;1.48;;;20.20;66.40;;;;;;5115384;28;20034;-88
2021/08/17 12:14:42;;;;;;;2.25;1.75;;;20.30;65.00;;;;;;5097238;28;20024;-88
2021/08/17 12:17:10;;;;;;;3.67;1.80;;;20.40;66.80;;;;;;5096854;28;20023;-87
2021/08/17 12:19:47;;;;;;;2.67;1.70;;;20.30;64.40;;;;;;5096995;28;20055;-88
2021/08/17 12:22:21;;;;;;;3.72;1.50;;;20.10;64.30;;;;;;5096875;28;20026;-88
2021/08/17 12:24:52;;;;;;;4.30;2.33;;;19.90;64.80;;;;;;5097297;28;20404;-88
2021/08/17 12:27:26;;;;;;;4.68;2.17;;;19.70;65.10;;;;;;5097634;28;20062;-88
2021/08/17 12:29:53;;;;;;;5.20;1.90;;;19.60;65.60;;;;;;5097640;28;20032;-88
2021/08/17 12:32:28;;;;;;;3.85;2.00;;;19.40;65.30;;;;;;5096866;28;20020;-89
2021/08/17 12:35:03;;;;;;;4.22;2.03;;;19.40;65.90;;;;;;5096726;28;20031;-89
2021/08/17 12:37:37;;;;;;;3.70;2.17;;;19.20;66.10;;;;;;5095159;28;20059;-89
2021/08/17 12:40:10;;;;;;;4.65;2.20;;;19.10;66.60;;;;;;5096350;28;20105;-88
2021/08/17 12:42:43;;;;;;;5.28;2.45;;;19.10;67.00;;;;;;5096609;28;20107;-88
2021/08/17 12:45:30;;;;;;;4.55;2.47;;;19.10;66.90;;;;;;5096200;28;20031;-88
2021/08/17 12:48:03;;;;;;;5.60;2.60;;;19.00;66.80;;;;;;5096421;28;20024;-88
2021/08/17 12:50:40;;;;;;;5.30;2.47;;;19.00;67.20;;;;;;5078346;28;20059;-89